createdAt,value
2018-10-02T00:01:50.151Z,32.47
2018-10-02T00:04:14.884Z,32.46
2018-10-02T00:06:41.521Z,32.43
2018-10-02T00:09:08.223Z,32.40
2018-10-02T00:11:34.858Z,32.39
2018-10-02T00:14:01.545Z,32.50
2018-10-02T00:16:28.213Z,32.42
2018-10-02T00:18:54.963Z,32.44
2018-10-02T00:21:21.731Z,32.40
2018-10-02T00:23:48.396Z,32.42
2018-10-02T00:26:15.056Z,32.34
2018-10-02T00:28:41.769Z,32.45
2018-10-02T00:31:09.664Z,32.35
2018-10-02T00:33:36.354Z,32.52
2018-10-02T00:36:03.132Z,32.33
2018-10-02T00:38:29.893Z,32.49
2018-10-02T00:40:59.670Z,32.23
2018-10-02T00:43:26.332Z,32.46
2018-10-02T00:45:53.034Z,32.30
2018-10-02T00:48:21.006Z,32.42
2018-10-02T00:50:46.469Z,32.31
2018-10-02T00:53:13.127Z,32.40
2018-10-02T00:55:42.504Z,32.29
2018-10-02T00:58:09.226Z,32.37
2018-10-02T01:00:37.216Z,32.29
2018-10-02T01:03:02.666Z,32.34
2018-10-02T01:05:31.076Z,32.34
2018-10-02T01:07:56.260Z,32.33
2018-10-02T01:10:22.965Z,32.36
2018-10-02T01:12:49.705Z,32.32
2018-10-02T01:15:16.310Z,32.32
2018-10-02T01:17:43.101Z,32.33
2018-10-02T01:20:09.829Z,32.33
2018-10-02T01:22:36.439Z,32.22
2018-10-02T01:25:03.074Z,32.24
2018-10-02T01:27:29.730Z,32.21
2018-10-02T01:29:56.441Z,32.15
2018-10-02T01:32:23.189Z,32.23
2018-10-02T01:34:49.927Z,32.20
2018-10-02T01:37:16.625Z,32.16
2018-10-02T01:39:43.250Z,32.13
2018-10-02T01:42:09.925Z,32.11
2018-10-02T01:44:36.524Z,32.04
2018-10-02T01:47:03.178Z,32.11
2018-10-02T01:49:29.993Z,32.13
2018-10-02T01:51:57.978Z,32.17
2018-10-02T01:54:23.243Z,32.21
2018-10-02T01:56:49.956Z,32.26
2018-10-02T01:59:16.600Z,32.27
2018-10-02T02:01:43.259Z,32.30
2018-10-02T02:04:09.933Z,32.29
2018-10-02T02:06:36.585Z,32.31
2018-10-02T02:09:03.286Z,32.27
2018-10-02T02:11:30.038Z,32.34
2018-10-02T02:13:56.783Z,32.33
2018-10-02T02:16:23.432Z,32.36
2018-10-02T02:18:50.178Z,32.33
2018-10-02T02:21:16.881Z,32.26
2018-10-02T02:23:43.524Z,32.37
2018-10-02T02:26:10.172Z,32.32
2018-10-02T02:28:36.823Z,32.39
2018-10-02T02:31:03.495Z,32.34
2018-10-02T02:33:30.164Z,32.36
2018-10-02T02:35:56.804Z,32.27
2018-10-02T02:38:23.538Z,32.36
2018-10-02T02:40:50.200Z,32.31
2018-10-02T02:43:18.091Z,32.35
2018-10-02T02:45:43.615Z,32.32
2018-10-02T02:48:10.291Z,32.42
2018-10-02T02:50:36.997Z,32.29
2018-10-02T02:53:03.637Z,32.32
2018-10-02T02:55:30.342Z,32.42
2018-10-02T02:57:57.012Z,32.36
2018-10-02T03:00:23.679Z,32.31
2018-10-02T03:02:50.391Z,32.34
2018-10-02T03:05:17.047Z,32.37
2018-10-02T03:07:44.432Z,32.35
2018-10-02T03:10:11.074Z,32.42
2018-10-02T03:12:37.840Z,32.59
2018-10-02T03:15:04.487Z,32.61
2018-10-02T03:17:33.918Z,32.77
2018-10-02T03:20:01.664Z,33.04
2018-10-02T03:22:28.356Z,33.28
2018-10-02T03:24:55.008Z,33.37
2018-10-02T03:27:21.667Z,33.46
2018-10-02T03:29:48.327Z,33.36
2018-10-02T03:32:15.029Z,33.16
2018-10-02T03:34:41.692Z,32.97
2018-10-02T03:37:08.441Z,32.90
2018-10-02T03:39:35.171Z,33.08
2018-10-02T03:42:01.944Z,33.12
2018-10-02T03:44:28.584Z,32.93
2018-10-02T03:46:55.277Z,32.69
2018-10-02T03:49:21.983Z,33.01
2018-10-02T03:51:48.703Z,33.02
2018-10-02T03:54:15.376Z,32.90
2018-10-02T03:56:42.133Z,32.76
2018-10-02T03:59:08.875Z,32.83
2018-10-02T04:01:35.630Z,32.84
2018-10-02T04:04:02.293Z,32.92
2018-10-02T04:06:28.962Z,32.81
2018-10-02T04:08:55.674Z,32.55
2018-10-02T04:11:22.511Z,32.17
2018-10-02T04:13:49.221Z,32.05
2018-10-02T04:16:15.864Z,31.95
2018-10-02T04:18:42.555Z,31.69
2018-10-02T04:21:09.245Z,31.83
2018-10-02T04:23:35.955Z,31.81
2018-10-02T04:26:02.645Z,31.73
2018-10-02T04:28:29.434Z,31.73
2018-10-02T04:30:55.994Z,31.75
2018-10-02T04:33:22.637Z,31.75
2018-10-02T04:35:49.338Z,31.75
2018-10-02T04:38:15.972Z,31.71
2018-10-02T04:40:42.665Z,31.58
2018-10-02T04:43:09.455Z,31.49
2018-10-02T04:45:36.118Z,31.46
2018-10-02T04:48:02.885Z,31.38
2018-10-02T04:50:29.522Z,31.21
2018-10-02T04:52:56.206Z,31.29
2018-10-02T04:55:22.925Z,31.16
2018-10-02T04:57:49.609Z,31.10
2018-10-02T05:00:18.038Z,30.89
2018-10-02T05:02:43.042Z,31.02
2018-10-02T05:05:10.258Z,31.03
2018-10-02T05:07:36.913Z,31.00
2018-10-02T05:10:03.698Z,31.11
2018-10-02T05:12:30.355Z,31.01
2018-10-02T05:14:57.028Z,30.99
2018-10-02T05:17:23.679Z,30.89
2018-10-02T05:19:50.515Z,30.81
2018-10-02T05:22:17.220Z,30.88
2018-10-02T05:24:43.879Z,30.77
2018-10-02T05:27:10.679Z,30.87
2018-10-02T05:29:37.238Z,31.00
2018-10-02T05:32:05.354Z,30.98
2018-10-02T05:34:30.605Z,30.90
2018-10-02T05:36:57.251Z,31.08
2018-10-02T05:39:23.961Z,31.18
2018-10-02T05:41:50.629Z,31.20
2018-10-02T05:44:17.361Z,31.22
2018-10-02T05:46:44.055Z,31.42
2018-10-02T05:49:10.879Z,31.24
2018-10-02T05:51:37.530Z,31.28
2018-10-02T05:54:04.248Z,31.35
2018-10-02T05:56:34.061Z,31.56
2018-10-02T05:59:00.708Z,31.40
2018-10-02T06:01:27.377Z,31.23
2018-10-02T06:03:54.267Z,31.38
2018-10-02T06:06:20.827Z,31.43
2018-10-02T06:08:47.601Z,31.28
2018-10-02T06:11:16.997Z,31.44
2018-10-02T06:13:43.712Z,31.55
2018-10-02T06:16:10.351Z,31.30
2018-10-02T06:18:37.033Z,31.56
2018-10-02T06:21:03.658Z,31.25
2018-10-02T06:23:33.141Z,31.33
2018-10-02T06:25:57.268Z,31.34
2018-10-02T06:28:24.040Z,31.56
2018-10-02T06:30:50.814Z,31.21
2018-10-02T06:33:17.553Z,31.27
2018-10-02T06:35:44.326Z,31.04
2018-10-02T06:38:11.022Z,31.22
2018-10-02T06:40:37.743Z,31.01
2018-10-02T06:43:04.482Z,31.10
2018-10-02T06:45:31.356Z,31.20
2018-10-02T06:47:58.082Z,31.50
2018-10-02T06:50:28.105Z,31.51
2018-10-02T06:52:55.084Z,31.79
2018-10-02T06:55:21.820Z,32.07
2018-10-02T06:57:48.677Z,32.30
2018-10-02T07:00:15.339Z,32.21
2018-10-02T07:02:42.111Z,32.33
2018-10-02T07:05:08.731Z,32.57
2018-10-02T07:07:35.396Z,32.55
2018-10-02T07:10:02.033Z,32.58
2018-10-02T07:12:28.883Z,32.74
2018-10-02T07:14:55.591Z,32.69
2018-10-02T07:17:22.270Z,33.09
2018-10-02T07:19:48.948Z,33.29
2018-10-02T07:22:15.880Z,33.22
2018-10-02T07:24:44.021Z,33.21
2018-10-02T07:27:09.464Z,33.52
2018-10-02T07:29:36.092Z,33.78
2018-10-02T07:32:02.809Z,33.75
2018-10-02T07:34:29.577Z,33.81
2018-10-02T07:36:56.471Z,33.98
2018-10-02T07:39:23.199Z,33.83
2018-10-02T07:41:49.981Z,33.92
2018-10-02T07:44:17.786Z,34.00
2018-10-02T07:46:43.463Z,34.02
2018-10-02T07:49:10.155Z,34.20
2018-10-02T07:51:36.924Z,34.04
2018-10-02T07:54:03.755Z,34.09
2018-10-02T07:56:32.701Z,34.06
2018-10-02T07:58:59.409Z,34.26
2018-10-02T08:01:26.453Z,34.19
2018-10-02T08:03:53.328Z,34.37
2018-10-02T08:06:19.944Z,34.32
2018-10-02T08:08:46.771Z,34.41
2018-10-02T08:11:14.747Z,34.35
2018-10-02T08:13:40.171Z,34.31
2018-10-02T08:16:08.305Z,34.60
2018-10-02T08:18:35.030Z,34.45
2018-10-02T08:21:01.776Z,34.62
2018-10-02T08:23:28.530Z,34.58
2018-10-02T08:25:55.192Z,34.59
2018-10-02T08:28:21.918Z,34.72
2018-10-02T08:30:48.725Z,34.76
2018-10-02T08:33:15.336Z,34.94
2018-10-02T08:35:42.202Z,34.82
2018-10-02T08:38:08.854Z,34.81
2018-10-02T08:40:35.551Z,34.87
2018-10-02T08:43:02.521Z,34.87
2018-10-02T08:45:29.249Z,34.87
2018-10-02T08:47:56.061Z,34.93
2018-10-02T08:50:22.787Z,35.01
2018-10-02T08:52:49.413Z,34.86
2018-10-02T08:55:16.096Z,34.81
2018-10-02T08:57:42.714Z,34.86
2018-10-02T09:00:09.373Z,34.79
2018-10-02T09:02:36.008Z,34.83
2018-10-02T09:05:02.701Z,34.97
2018-10-02T09:07:29.442Z,34.95
2018-10-02T09:09:56.215Z,34.96
2018-10-02T09:12:22.923Z,34.98
2018-10-02T09:14:49.601Z,35.00
2018-10-02T09:17:16.245Z,35.00
2018-10-02T09:19:42.949Z,35.09
2018-10-02T09:22:09.592Z,35.14
2018-10-02T09:24:36.346Z,35.27
2018-10-02T09:27:02.930Z,35.38
2018-10-02T09:29:29.593Z,35.45
2018-10-02T09:31:56.318Z,35.42
2018-10-02T09:34:23.020Z,35.35
2018-10-02T09:36:51.895Z,35.34
2018-10-02T09:39:16.353Z,35.47
2018-10-02T09:41:43.012Z,35.44
2018-10-02T09:44:09.717Z,35.34
2018-10-02T09:46:36.336Z,35.39
2018-10-02T09:49:03.055Z,35.46
2018-10-02T09:51:29.716Z,36.15
2018-10-02T09:53:59.028Z,35.95
2018-10-02T09:56:25.715Z,35.71
2018-10-02T09:58:55.014Z,35.84
2018-10-02T10:01:21.696Z,35.81
2018-10-02T10:03:48.648Z,35.73
2018-10-02T10:06:18.269Z,35.82
2018-10-02T10:08:45.017Z,35.77
2018-10-02T10:11:11.837Z,35.71
2018-10-02T10:13:38.444Z,36.05
2018-10-02T10:16:05.090Z,35.82
2018-10-02T10:18:31.750Z,35.92
2018-10-02T10:20:58.411Z,36.05
2018-10-02T10:23:25.187Z,35.98
2018-10-02T10:25:51.868Z,36.06
2018-10-02T10:28:18.548Z,35.97
2018-10-02T10:30:45.331Z,35.84
2018-10-02T10:33:12.075Z,36.04
2018-10-02T10:35:38.782Z,35.99
2018-10-02T10:38:05.388Z,35.97
2018-10-02T10:40:32.136Z,35.83
2018-10-02T10:42:58.797Z,35.97
2018-10-02T10:45:25.427Z,35.90
2018-10-02T10:47:52.099Z,35.99
2018-10-02T10:50:18.803Z,35.89
2018-10-02T10:52:46.832Z,35.77
2018-10-02T10:55:12.319Z,35.90
2018-10-02T10:57:38.983Z,36.02
2018-10-02T11:00:05.661Z,35.67
2018-10-02T11:02:32.351Z,35.83
2018-10-02T11:04:59.367Z,35.64
2018-10-02T11:07:25.989Z,35.66
2018-10-02T11:09:52.636Z,35.74
2018-10-02T11:12:19.284Z,35.71
2018-10-02T11:14:46.004Z,35.81
2018-10-02T11:17:12.645Z,35.83
2018-10-02T11:19:40.593Z,35.75
2018-10-02T11:22:07.109Z,35.75
2018-10-02T11:24:33.970Z,35.52
2018-10-02T11:27:00.663Z,35.50
2018-10-02T11:29:27.448Z,35.42
2018-10-02T11:31:54.119Z,35.30
2018-10-02T11:34:22.726Z,35.56
2018-10-02T11:36:49.410Z,35.59
2018-10-02T11:39:18.705Z,35.61
2018-10-02T11:41:46.922Z,35.49
2018-10-02T11:44:13.802Z,35.51
2018-10-02T11:46:40.374Z,35.39
2018-10-02T11:49:07.077Z,35.34
2018-10-02T11:51:33.738Z,35.14
2018-10-02T11:54:03.080Z,35.16
2018-10-02T11:56:27.289Z,35.12
2018-10-02T11:58:53.955Z,35.09
2018-10-02T12:01:20.722Z,35.19
2018-10-02T12:03:47.324Z,34.93
2018-10-02T12:06:13.988Z,34.72
2018-10-02T12:08:40.691Z,34.96
2018-10-02T12:11:07.436Z,34.85
2018-10-02T12:13:34.302Z,34.80
2018-10-02T12:16:02.014Z,34.54
2018-10-02T12:18:27.454Z,34.69
2018-10-02T12:20:54.108Z,34.60
2018-10-02T12:23:20.771Z,34.59
2018-10-02T12:25:47.575Z,34.41
2018-10-02T12:28:14.183Z,34.44
2018-10-02T12:30:40.849Z,34.23
2018-10-02T12:33:15.877Z,34.43
2018-10-02T12:35:42.557Z,34.55
2018-10-02T12:38:09.349Z,34.53
2018-10-02T12:40:39.080Z,34.36
2018-10-02T12:43:05.785Z,34.40
2018-10-02T12:45:32.453Z,34.15
2018-10-02T12:47:59.240Z,34.47
2018-10-02T12:50:25.888Z,34.39
2018-10-02T12:52:52.713Z,34.31
2018-10-02T12:55:19.250Z,34.37
2018-10-02T12:57:45.903Z,33.90
2018-10-02T13:00:12.611Z,34.27
2018-10-02T13:02:39.385Z,34.20
2018-10-02T13:05:06.054Z,34.17
2018-10-02T13:07:32.672Z,34.06
2018-10-02T13:09:59.486Z,34.04
2018-10-02T13:12:26.117Z,33.93
2018-10-02T13:14:52.850Z,33.72
2018-10-02T13:17:19.537Z,33.47
2018-10-02T13:19:46.281Z,33.59
2018-10-02T13:22:12.894Z,34.11
2018-10-02T13:24:39.935Z,34.16
2018-10-02T13:27:06.408Z,33.82
2018-10-02T13:29:33.239Z,33.58
2018-10-02T13:32:00.044Z,33.60
2018-10-02T13:34:26.713Z,33.70
2018-10-02T13:36:55.979Z,34.06
2018-10-02T13:39:22.598Z,34.01
2018-10-02T13:41:49.349Z,33.92
2018-10-02T13:44:16.002Z,33.52
2018-10-02T13:46:42.691Z,33.68
2018-10-02T13:49:09.395Z,34.01
2018-10-02T13:51:36.061Z,33.68
2018-10-02T13:54:02.867Z,33.61
2018-10-02T13:56:29.515Z,33.27
2018-10-02T13:58:56.169Z,33.76
2018-10-02T14:01:22.831Z,33.45
2018-10-02T14:03:50.233Z,33.48
2018-10-02T14:06:16.973Z,33.80
2018-10-02T14:08:43.712Z,33.82
2018-10-02T14:11:10.448Z,33.69
2018-10-02T14:13:37.146Z,33.66
2018-10-02T14:16:03.888Z,33.64
2018-10-02T14:18:30.607Z,33.63
2018-10-02T14:20:57.250Z,33.59
2018-10-02T14:23:24.024Z,33.39
2018-10-02T14:25:52.856Z,33.39
2018-10-02T14:28:19.503Z,33.43
2018-10-02T14:30:46.239Z,33.58
2018-10-02T14:33:12.902Z,33.23
2018-10-02T14:35:39.778Z,33.20
2018-10-02T14:38:06.439Z,33.71
2018-10-02T14:40:33.128Z,33.39
2018-10-02T14:42:59.887Z,33.98
2018-10-02T14:45:26.578Z,33.79
2018-10-02T14:47:53.241Z,33.67
2018-10-02T14:50:21.920Z,33.61
2018-10-02T14:52:46.770Z,33.57
2018-10-02T14:55:13.521Z,33.56
2018-10-02T14:57:40.350Z,33.61
2018-10-02T15:00:06.967Z,33.60
2018-10-02T15:02:33.717Z,33.54
2018-10-02T15:05:06.526Z,33.52
2018-10-02T15:07:33.182Z,33.49
2018-10-02T15:09:59.837Z,33.52
2018-10-02T15:12:26.537Z,33.56
2018-10-02T15:14:53.221Z,33.59
2018-10-02T15:17:19.897Z,33.73
2018-10-02T15:19:46.745Z,33.98
2018-10-02T15:22:13.463Z,33.88
2018-10-02T15:24:40.236Z,33.73
2018-10-02T15:27:06.878Z,33.97
2018-10-02T15:29:33.660Z,34.29
2018-10-02T15:32:00.333Z,34.25
2018-10-02T15:34:27.070Z,34.29
2018-10-02T15:36:53.840Z,34.43
2018-10-02T15:39:20.455Z,34.32
2018-10-02T15:41:47.159Z,34.40
2018-10-02T15:44:13.938Z,34.47
2018-10-02T15:46:40.574Z,34.48
2018-10-02T15:49:07.238Z,34.59
2018-10-02T15:51:35.807Z,34.67
2018-10-02T15:54:02.458Z,34.69
2018-10-02T15:56:29.129Z,34.72
2018-10-02T15:58:55.840Z,34.87
2018-10-02T16:01:22.491Z,34.88
2018-10-02T16:03:49.204Z,34.63
2018-10-02T16:06:15.855Z,34.57
2018-10-02T16:08:42.620Z,34.39
2018-10-02T16:11:12.237Z,34.45
2018-10-02T16:13:41.535Z,34.28
2018-10-02T16:16:08.266Z,34.25
2018-10-02T16:18:34.914Z,34.18
2018-10-02T16:21:03.046Z,34.30
2018-10-02T16:23:29.328Z,34.34
2018-10-02T16:25:56.048Z,34.58
2018-10-02T16:28:22.717Z,34.73
2018-10-02T16:30:54.005Z,34.76
2018-10-02T16:33:24.143Z,34.72
2018-10-02T16:35:50.833Z,34.88
2018-10-02T16:38:17.540Z,34.98
2018-10-02T16:40:44.323Z,35.08
2018-10-02T16:43:11.018Z,35.05
2018-10-02T16:45:39.034Z,35.17
2018-10-02T16:48:04.302Z,35.25
2018-10-02T16:50:30.965Z,35.28
2018-10-02T16:52:57.636Z,35.28
2018-10-02T16:55:24.256Z,35.38
2018-10-02T16:57:50.893Z,35.44
2018-10-02T17:00:17.568Z,35.42
2018-10-02T17:02:46.403Z,35.48
2018-10-02T17:05:13.099Z,35.51
2018-10-02T17:07:39.798Z,35.40
2018-10-02T17:10:06.474Z,35.33
2018-10-02T17:12:33.725Z,35.53
2018-10-02T17:15:00.359Z,35.63
2018-10-02T17:17:27.040Z,35.56
2018-10-02T17:19:53.665Z,35.65
2018-10-02T17:22:20.311Z,35.72
2018-10-02T17:24:46.955Z,35.79
2018-10-02T17:27:13.719Z,35.81
2018-10-02T17:29:40.399Z,35.87
2018-10-02T17:32:07.040Z,35.82
2018-10-02T17:34:33.707Z,35.96
2018-10-02T17:37:00.343Z,35.98
2018-10-02T17:39:27.095Z,36.04
2018-10-02T17:41:53.755Z,36.04
2018-10-02T17:44:20.539Z,36.07
2018-10-02T17:46:47.280Z,36.16
2018-10-02T17:49:13.947Z,35.91
2018-10-02T17:51:40.629Z,35.55
2018-10-02T17:54:07.315Z,35.43
2018-10-02T17:56:33.974Z,35.40
2018-10-02T17:59:00.643Z,35.33
2018-10-02T18:01:27.462Z,35.51
2018-10-02T18:03:54.187Z,35.67
2018-10-02T18:06:20.829Z,35.88
2018-10-02T18:08:47.495Z,35.89
2018-10-02T18:11:14.134Z,35.74
2018-10-02T18:13:40.843Z,35.70
2018-10-02T18:16:09.095Z,35.53
2018-10-02T18:18:34.242Z,35.54
2018-10-02T18:21:00.948Z,35.43
2018-10-02T18:23:27.753Z,35.42
2018-10-02T18:25:54.395Z,35.45
2018-10-02T18:28:21.131Z,35.44
2018-10-02T18:30:47.779Z,35.38
2018-10-02T18:33:14.548Z,35.30
2018-10-02T18:35:41.286Z,35.33
2018-10-02T18:38:07.935Z,35.22
2018-10-02T18:40:34.704Z,35.35
2018-10-02T18:43:03.412Z,34.45
2018-10-02T18:45:31.432Z,35.73
2018-10-02T18:47:59.578Z,35.93
2018-10-02T18:50:26.307Z,35.79
2018-10-02T18:52:52.970Z,35.65
2018-10-02T18:55:19.626Z,35.66
2018-10-02T18:57:49.227Z,35.64
2018-10-02T19:00:15.932Z,35.64
2018-10-02T19:02:42.578Z,35.62
2018-10-02T19:05:09.292Z,35.61
2018-10-02T19:07:35.935Z,35.53
2018-10-02T19:10:02.696Z,35.52
2018-10-02T19:12:30.705Z,35.41
2018-10-02T19:14:57.346Z,35.40
2018-10-02T19:17:23.989Z,35.45
2018-10-02T19:19:50.698Z,35.31
2018-10-02T19:22:17.407Z,35.39
2018-10-02T19:24:44.114Z,35.23
2018-10-02T19:27:10.846Z,35.28
2018-10-02T19:29:40.825Z,35.25
2018-10-02T19:32:07.484Z,35.29
2018-10-02T19:34:34.225Z,35.11
2018-10-02T19:37:00.969Z,35.13
2018-10-02T19:39:27.606Z,34.87
2018-10-02T19:41:54.262Z,34.81
2018-10-02T19:44:20.908Z,34.79
2018-10-02T19:46:47.651Z,34.77
2018-10-02T19:49:14.353Z,34.73
2018-10-02T19:51:41.026Z,34.58
2018-10-02T19:54:07.626Z,34.60
2018-10-02T19:56:34.271Z,34.51
2018-10-02T19:59:00.910Z,34.42
2018-10-02T20:01:28.711Z,34.46
2018-10-02T20:03:55.957Z,34.37
2018-10-02T20:06:23.895Z,34.37
2018-10-02T20:08:50.590Z,34.45
2018-10-02T20:11:17.308Z,34.45
2018-10-02T20:13:43.985Z,34.45
2018-10-02T20:16:10.567Z,34.24
2018-10-02T20:18:37.304Z,34.31
2018-10-02T20:21:03.935Z,34.36
2018-10-02T20:23:30.717Z,34.25
2018-10-02T20:25:57.366Z,34.32
2018-10-02T20:28:24.097Z,34.25
2018-10-02T20:30:50.710Z,34.25
2018-10-02T20:33:17.490Z,34.18
2018-10-02T20:35:47.353Z,34.17
2018-10-02T20:38:14.001Z,34.08
2018-10-02T20:40:40.656Z,34.06
2018-10-02T20:43:07.376Z,33.91
2018-10-02T20:45:34.149Z,33.92
2018-10-02T20:48:00.841Z,33.85
2018-10-02T20:50:27.582Z,33.86
2018-10-02T20:52:56.647Z,33.73
2018-10-02T20:55:20.996Z,33.78
2018-10-02T20:57:47.733Z,33.71
2018-10-02T21:00:15.674Z,33.67
2018-10-02T21:02:41.139Z,33.62
2018-10-02T21:05:11.089Z,33.62
2018-10-02T21:07:37.739Z,33.58
2018-10-02T21:10:04.399Z,33.44
2018-10-02T21:12:32.308Z,33.45
2018-10-02T21:14:57.705Z,33.41
2018-10-02T21:17:24.382Z,33.46
2018-10-02T21:19:51.102Z,33.43
2018-10-02T21:22:17.697Z,33.32
2018-10-02T21:24:44.350Z,33.32
2018-10-02T21:27:11.037Z,33.28
2018-10-02T21:29:37.685Z,33.20
2018-10-02T21:32:04.318Z,33.22
2018-10-02T21:34:30.986Z,33.15
2018-10-02T21:36:57.631Z,33.16
2018-10-02T21:39:24.291Z,33.12
2018-10-02T21:41:50.930Z,33.12
2018-10-02T21:44:17.578Z,33.08
2018-10-02T21:46:44.241Z,33.02
2018-10-02T21:49:10.932Z,32.99
2018-10-02T21:51:37.549Z,32.89
2018-10-02T21:54:04.199Z,32.89
2018-10-02T21:56:30.860Z,32.82
2018-10-02T21:58:57.567Z,32.88
2018-10-02T22:01:24.270Z,32.88
2018-10-02T22:03:50.917Z,32.83
2018-10-02T22:06:17.646Z,32.69
2018-10-02T22:08:44.286Z,32.71
2018-10-02T22:11:10.936Z,32.63
2018-10-02T22:13:37.589Z,32.64
2018-10-02T22:16:04.264Z,32.58
2018-10-02T22:18:30.912Z,32.57
2018-10-02T22:20:57.561Z,32.54
2018-10-02T22:23:24.288Z,32.50
2018-10-02T22:25:51.062Z,32.53
2018-10-02T22:28:17.677Z,32.49
2018-10-02T22:30:44.335Z,32.48
2018-10-02T22:33:10.988Z,32.43
2018-10-02T22:35:37.683Z,32.36
2018-10-02T22:38:04.299Z,32.32
2018-10-02T22:40:34.234Z,32.32
2018-10-02T22:43:00.887Z,32.30
2018-10-02T22:45:27.542Z,32.28
2018-10-02T22:47:54.186Z,32.17
2018-10-02T22:50:20.930Z,32.22
2018-10-02T22:52:47.629Z,32.17
2018-10-02T22:55:14.288Z,32.24
2018-10-02T22:57:40.939Z,32.10
2018-10-02T23:00:07.593Z,32.11
2018-10-02T23:02:34.235Z,31.99
2018-10-02T23:05:00.933Z,32.09
2018-10-02T23:07:27.574Z,32.03
2018-10-02T23:09:54.228Z,32.03
2018-10-02T23:12:20.870Z,32.00
2018-10-02T23:14:47.526Z,32.04
2018-10-02T23:17:14.254Z,31.96
2018-10-02T23:19:45.359Z,31.96
2018-10-02T23:22:07.593Z,31.99
2018-10-02T23:24:34.254Z,31.98
2018-10-02T23:27:03.781Z,31.92
2018-10-02T23:29:30.456Z,31.96
2018-10-02T23:31:57.142Z,31.91
2018-10-02T23:34:23.796Z,31.91
2018-10-02T23:36:51.429Z,31.92
2018-10-02T23:39:18.104Z,31.87
2018-10-02T23:41:44.738Z,31.85
2018-10-02T23:44:11.370Z,31.75
2018-10-02T23:46:41.301Z,31.84
2018-10-02T23:49:07.950Z,31.72
2018-10-02T23:51:34.699Z,31.76
2018-10-02T23:54:02.719Z,31.68
2018-10-02T23:56:28.005Z,31.68
2018-10-02T23:58:57.850Z,31.67
